sensor_id;sensor_type;location;lat;lon;timestamp;noise_LAeq;noise_LA_min;noise_LA_max;noise_LA01;noise_LA95
56099;Laerm;44276;49.534;6.378;2023-02-01T00:00:14;42.97;41.55;44.19;;
56099;Laerm;44276;49.534;6.378;2023-02-01T00:02:47;42.96;41.68;43.94;;
56099;Laerm;44276;49.534;6.378;2023-02-01T00:05:32;42.97;41.61;44.15;;
56099;Laerm;44276;49.534;6.378;2023-02-01T00:08:04;42.96;41.68;43.94;;
56099;Laerm;44276;49.534;6.378;2023-02-01T00:10:34;42.95;41.30;43.94;;
56099;Laerm;44276;49.534;6.378;2023-02-01T00:13:04;42.94;41.53;44.11;;
56099;Laerm;44276;49.534;6.378;2023-02-01T00:15:33;42.94;41.68;43.99;;
56099;Laerm;44276;49.534;6.378;2023-02-01T00:18:01;42.94;41.53;43.94;;
56099;Laerm;44276;49.534;6.378;2023-02-01T00:20:29;42.94;41.53;43.99;;
56099;Laerm;44276;49.534;6.378;2023-02-01T00:22:57;42.93;41.61;43.99;;
56099;Laerm;44276;49.534;6.378;2023-02-01T00:25:25;42.95;41.61;43.99;;
56099;Laerm;44276;49.534;6.378;2023-02-01T00:27:53;42.94;41.61;43.90;;
56099;Laerm;44276;49.534;6.378;2023-02-01T00:30:25;42.95;41.68;44.11;;
56099;Laerm;44276;49.534;6.378;2023-02-01T00:32:53;42.95;41.61;44.07;;
56099;Laerm;44276;49.534;6.378;2023-02-01T00:35:21;42.95;41.61;44.07;;
56099;Laerm;44276;49.534;6.378;2023-02-01T00:37:50;42.94;41.55;44.03;;
56099;Laerm;44276;49.534;6.378;2023-02-01T00:40:18;42.95;41.53;44.03;;
56099;Laerm;44276;49.534;6.378;2023-02-01T00:42:47;42.95;41.61;43.99;;
56099;Laerm;44276;49.534;6.378;2023-02-01T00:45:15;42.94;41.75;44.03;;
56099;Laerm;44276;49.534;6.378;2023-02-01T00:47:45;42.94;41.68;43.99;;
56099;Laerm;44276;49.534;6.378;2023-02-01T00:50:14;42.95;41.68;44.07;;
56099;Laerm;44276;49.534;6.378;2023-02-01T00:52:42;42.95;41.53;43.94;;
56099;Laerm;44276;49.534;6.378;2023-02-01T00:55:10;42.95;41.82;43.99;;
56099;Laerm;44276;49.534;6.378;2023-02-01T00:57:38;42.97;41.75;44.35;;
56099;Laerm;44276;49.534;6.378;2023-02-01T01:00:09;42.97;41.68;44.11;;
56099;Laerm;44276;49.534;6.378;2023-02-01T01:02:37;42.96;41.61;44.07;;
56099;Laerm;44276;49.534;6.378;2023-02-01T01:05:07;42.96;41.61;44.11;;
56099;Laerm;44276;49.534;6.378;2023-02-01T01:07:36;42.96;41.61;43.99;;
56099;Laerm;44276;49.534;6.378;2023-02-01T01:10:05;42.95;41.61;44.11;;
56099;Laerm;44276;49.534;6.378;2023-02-01T01:12:33;42.96;41.61;44.11;;
56099;Laerm;44276;49.534;6.378;2023-02-01T01:15:02;42.95;41.61;43.99;;
56099;Laerm;44276;49.534;6.378;2023-02-01T01:17:31;42.96;41.46;43.99;;
56099;Laerm;44276;49.534;6.378;2023-02-01T01:19:59;42.96;41.61;44.03;;
56099;Laerm;44276;49.534;6.378;2023-02-01T01:22:29;42.94;41.53;43.90;;
56099;Laerm;44276;49.534;6.378;2023-02-01T01:24:57;42.94;41.61;44.15;;
56099;Laerm;44276;49.534;6.378;2023-02-01T01:27:25;42.94;41.46;43.99;;
56099;Laerm;44276;49.534;6.378;2023-02-01T01:29:53;42.94;41.75;44.11;;
56099;Laerm;44276;49.534;6.378;2023-02-01T01:32:21;42.94;41.61;43.94;;
56099;Laerm;44276;49.534;6.378;2023-02-01T01:34:49;42.94;41.68;43.99;;
56099;Laerm;44276;49.534;6.378;2023-02-01T01:37:17;42.94;41.46;44.27;;
56099;Laerm;44276;49.534;6.378;2023-02-01T01:39:47;42.94;41.46;43.99;;
56099;Laerm;44276;49.534;6.378;2023-02-01T01:42:15;42.94;41.68;44.07;;
56099;Laerm;44276;49.534;6.378;2023-02-01T01:45:02;42.94;41.68;43.99;;
56099;Laerm;44276;49.534;6.378;2023-02-01T01:47:35;42.95;41.68;44.15;;
56099;Laerm;44276;49.534;6.378;2023-02-01T01:50:07;42.94;41.75;44.03;;
56099;Laerm;44276;49.534;6.378;2023-02-01T01:52:38;42.95;41.61;44.11;;
56099;Laerm;44276;49.534;6.378;2023-02-01T01:55:10;42.95;41.61;43.94;;
56099;Laerm;44276;49.534;6.378;2023-02-01T01:57:44;42.96;41.68;44.03;;
56099;Laerm;44276;49.534;6.378;2023-02-01T02:00:17;42.94;41.68;44.11;;
56099;Laerm;44276;49.534;6.378;2023-02-01T02:02:53;42.94;41.61;43.94;;
56099;Laerm;44276;49.534;6.378;2023-02-01T02:05:22;42.95;41.46;44.03;;
56099;Laerm;44276;49.534;6.378;2023-02-01T02:07:57;42.94;41.68;44.03;;
56099;Laerm;44276;49.534;6.378;2023-02-01T02:10:27;42.95;41.82;44.11;;
56099;Laerm;44276;49.534;6.378;2023-02-01T02:13:10;42.94;41.75;44.07;;
56099;Laerm;44276;49.534;6.378;2023-02-01T02:15:46;42.94;41.61;44.11;;
56099;Laerm;44276;49.534;6.378;2023-02-01T02:18:28;42.95;41.75;43.94;;
56099;Laerm;44276;49.534;6.378;2023-02-01T02:21:15;42.94;41.68;44.27;;
56099;Laerm;44276;49.534;6.378;2023-02-01T02:24:38;42.93;41.68;43.94;;
56099;Laerm;44276;49.534;6.378;2023-02-01T02:27:23;42.94;41.82;44.11;;
56099;Laerm;44276;49.534;6.378;2023-02-01T02:30:36;42.94;41.61;44.03;;
56099;Laerm;44276;49.534;6.378;2023-02-01T02:33:43;42.94;41.68;44.27;;
56099;Laerm;44276;49.534;6.378;2023-02-01T02:36:24;42.94;41.46;44.16;;
56099;Laerm;44276;49.534;6.378;2023-02-01T02:39:07;42.94;41.61;43.99;;
56099;Laerm;44276;49.534;6.378;2023-02-01T02:41:49;42.94;41.75;44.11;;
56099;Laerm;44276;49.534;6.378;2023-02-01T02:44:48;42.94;41.68;43.90;;
56099;Laerm;44276;49.534;6.378;2023-02-01T02:47:48;42.94;41.46;44.11;;
56099;Laerm;44276;49.534;6.378;2023-02-01T02:50:26;42.94;41.53;44.39;;
56099;Laerm;44276;49.534;6.378;2023-02-01T02:53:16;42.94;41.68;44.15;;
56099;Laerm;44276;49.534;6.378;2023-02-01T02:56:06;42.95;41.75;44.11;;
56099;Laerm;44276;49.534;6.378;2023-02-01T02:58:53;42.94;41.68;44.03;;
56099;Laerm;44276;49.534;6.378;2023-02-01T03:01:40;42.96;41.75;43.99;;
56099;Laerm;44276;49.534;6.378;2023-02-01T03:04:27;42.95;41.68;44.07;;
56099;Laerm;44276;49.534;6.378;2023-02-01T03:06:56;42.96;41.82;44.07;;
56099;Laerm;44276;49.534;6.378;2023-02-01T03:09:31;42.96;41.68;43.90;;
56099;Laerm;44276;49.534;6.378;2023-02-01T03:12:06;42.95;41.61;44.07;;
56099;Laerm;44276;49.534;6.378;2023-02-01T03:15:00;42.96;41.61;44.19;;
56099;Laerm;44276;49.534;6.378;2023-02-01T03:17:37;42.96;41.75;44.03;;
56099;Laerm;44276;49.534;6.378;2023-02-01T03:20:09;42.97;41.61;44.07;;
56099;Laerm;44276;49.534;6.378;2023-02-01T03:22:44;42.96;41.53;43.99;;
56099;Laerm;44276;49.534;6.378;2023-02-01T03:25:21;42.95;41.46;44.08;;
56099;Laerm;44276;49.534;6.378;2023-02-01T03:27:57;42.95;41.53;44.03;;
56099;Laerm;44276;49.534;6.378;2023-02-01T03:30:31;42.94;41.68;43.99;;
56099;Laerm;44276;49.534;6.378;2023-02-01T03:33:06;42.95;41.82;43.99;;
56099;Laerm;44276;49.534;6.378;2023-02-01T03:35:48;42.94;41.38;44.03;;
56099;Laerm;44276;49.534;6.378;2023-02-01T03:38:23;42.95;41.22;44.11;;
56099;Laerm;44276;49.534;6.378;2023-02-01T03:41:02;42.96;41.68;43.99;;
56099;Laerm;44276;49.534;6.378;2023-02-01T03:43:44;42.95;41.48;44.07;;
56099;Laerm;44276;49.534;6.378;2023-02-01T03:46:22;42.94;41.68;44.03;;
56099;Laerm;44276;49.534;6.378;2023-02-01T03:48:54;42.94;41.38;44.01;;
56099;Laerm;44276;49.534;6.378;2023-02-01T03:51:24;42.94;41.68;43.99;;
56099;Laerm;44276;49.534;6.378;2023-02-01T03:53:56;42.94;41.53;43.99;;
56099;Laerm;44276;49.534;6.378;2023-02-01T03:56:27;42.94;41.61;43.99;;
56099;Laerm;44276;49.534;6.378;2023-02-01T03:58:56;42.94;41.61;44.03;;
56099;Laerm;44276;49.534;6.378;2023-02-01T04:01:28;42.94;41.75;44.03;;
56099;Laerm;44276;49.534;6.378;2023-02-01T04:03:57;42.95;41.75;44.01;;
56099;Laerm;44276;49.534;6.378;2023-02-01T04:06:26;42.95;41.75;44.03;;
56099;Laerm;44276;49.534;6.378;2023-02-01T04:08:55;42.94;41.61;43.99;;
56099;Laerm;44276;49.534;6.378;2023-02-01T04:11:23;42.94;41.61;44.11;;
56099;Laerm;44276;49.534;6.378;2023-02-01T04:13:51;42.94;41.68;44.03;;
56099;Laerm;44276;49.534;6.378;2023-02-01T04:16:19;42.95;41.53;44.03;;
56099;Laerm;44276;49.534;6.378;2023-02-01T04:18:47;42.95;41.53;43.94;;
56099;Laerm;44276;49.534;6.378;2023-02-01T04:21:17;42.96;41.75;44.03;;
56099;Laerm;44276;49.534;6.378;2023-02-01T04:23:45;42.95;41.75;43.97;;
56099;Laerm;44276;49.534;6.378;2023-02-01T04:26:14;42.96;41.61;44.03;;
56099;Laerm;44276;49.534;6.378;2023-02-01T04:28:43;42.97;41.61;43.99;;
56099;Laerm;44276;49.534;6.378;2023-02-01T04:31:11;42.95;41.22;43.94;;
56099;Laerm;44276;49.534;6.378;2023-02-01T04:33:39;42.95;41.61;43.90;;
56099;Laerm;44276;49.534;6.378;2023-02-01T04:36:07;42.96;41.53;44.15;;
56099;Laerm;44276;49.534;6.378;2023-02-01T04:38:36;42.97;41.75;44.27;;
56099;Laerm;44276;49.534;6.378;2023-02-01T04:41:04;42.97;41.68;43.90;;
56099;Laerm;44276;49.534;6.378;2023-02-01T04:43:33;42.97;41.61;44.11;;
56099;Laerm;44276;49.534;6.378;2023-02-01T04:46:01;42.98;41.53;44.15;;
56099;Laerm;44276;49.534;6.378;2023-02-01T04:48:30;42.98;41.53;44.03;;
56099;Laerm;44276;49.534;6.378;2023-02-01T04:50:58;42.98;41.46;44.03;;
56099;Laerm;44276;49.534;6.378;2023-02-01T04:53:26;42.98;41.53;44.19;;
56099;Laerm;44276;49.534;6.378;2023-02-01T04:55:54;42.98;41.61;43.99;;
56099;Laerm;44276;49.534;6.378;2023-02-01T04:58:22;42.98;41.75;44.03;;
56099;Laerm;44276;49.534;6.378;2023-02-01T05:00:51;42.98;41.53;44.07;;
56099;Laerm;44276;49.534;6.378;2023-02-01T05:03:19;42.98;41.75;43.99;;
56099;Laerm;44276;49.534;6.378;2023-02-01T05:05:48;42.97;41.53;44.03;;
56099;Laerm;44276;49.534;6.378;2023-02-01T05:08:16;42.97;41.53;44.07;;
56099;Laerm;44276;49.534;6.378;2023-02-01T05:10:45;42.98;41.68;44.11;;
56099;Laerm;44276;49.534;6.378;2023-02-01T05:13:13;42.97;41.75;44.03;;
56099;Laerm;44276;49.534;6.378;2023-02-01T05:16:00;42.98;41.68;44.03;;
56099;Laerm;44276;49.534;6.378;2023-02-01T05:18:28;42.98;41.82;44.03;;
56099;Laerm;44276;49.534;6.378;2023-02-01T05:20:56;42.98;41.68;44.07;;
56099;Laerm;44276;49.534;6.378;2023-02-01T05:23:24;42.98;41.68;44.31;;
56099;Laerm;44276;49.534;6.378;2023-02-01T05:25:58;42.98;41.53;43.94;;
56099;Laerm;44276;49.534;6.378;2023-02-01T05:28:26;42.99;41.75;44.20;;
56099;Laerm;44276;49.534;6.378;2023-02-01T05:30:55;42.98;41.82;44.03;;
56099;Laerm;44276;49.534;6.378;2023-02-01T05:33:24;42.98;41.68;43.99;;
56099;Laerm;44276;49.534;6.378;2023-02-01T05:35:52;42.98;41.75;44.07;;
56099;Laerm;44276;49.534;6.378;2023-02-01T05:38:20;42.99;41.68;43.99;;
56099;Laerm;44276;49.534;6.378;2023-02-01T05:40:48;42.99;41.61;44.07;;
56099;Laerm;44276;49.534;6.378;2023-02-01T05:43:16;42.99;41.82;44.11;;
56099;Laerm;44276;49.534;6.378;2023-02-01T05:45:44;42.98;41.61;44.11;;
56099;Laerm;44276;49.534;6.378;2023-02-01T05:48:13;42.99;41.75;44.27;;
56099;Laerm;44276;49.534;6.378;2023-02-01T05:50:43;42.98;41.53;44.03;;
56099;Laerm;44276;49.534;6.378;2023-02-01T05:53:11;42.99;41.75;43.99;;
56099;Laerm;44276;49.534;6.378;2023-02-01T05:55:41;43.00;41.82;44.11;;
56099;Laerm;44276;49.534;6.378;2023-02-01T05:58:09;42.99;41.89;44.11;;
56099;Laerm;44276;49.534;6.378;2023-02-01T06:00:39;42.99;41.75;43.99;;
56099;Laerm;44276;49.534;6.378;2023-02-01T06:03:07;42.98;41.68;43.90;;
56099;Laerm;44276;49.534;6.378;2023-02-01T06:05:35;42.97;41.53;43.99;;
56099;Laerm;44276;49.534;6.378;2023-02-01T06:08:05;42.99;41.53;44.27;;
56099;Laerm;44276;49.534;6.378;2023-02-01T06:10:34;42.97;41.75;44.03;;
56099;Laerm;44276;49.534;6.378;2023-02-01T06:13:03;42.97;41.53;43.99;;
56099;Laerm;44276;49.534;6.378;2023-02-01T06:15:32;42.98;41.75;44.03;;
56099;Laerm;44276;49.534;6.378;2023-02-01T06:18:00;42.98;41.75;43.94;;
56099;Laerm;44276;49.534;6.378;2023-02-01T06:20:28;42.98;41.68;44.07;;
56099;Laerm;44276;49.534;6.378;2023-02-01T06:22:57;42.97;41.68;44.11;;
56099;Laerm;44276;49.534;6.378;2023-02-01T06:25:27;42.98;41.61;44.15;;
56099;Laerm;44276;49.534;6.378;2023-02-01T06:27:55;42.97;41.75;44.31;;
56099;Laerm;44276;49.534;6.378;2023-02-01T06:30:23;42.97;41.61;44.11;;
56099;Laerm;44276;49.534;6.378;2023-02-01T06:32:53;42.98;41.68;43.93;;
56099;Laerm;44276;49.534;6.378;2023-02-01T06:35:21;42.98;41.53;44.03;;
56099;Laerm;44276;49.534;6.378;2023-02-01T06:37:51;42.98;41.53;44.15;;
56099;Laerm;44276;49.534;6.378;2023-02-01T06:40:33;42.98;41.53;44.11;;
56099;Laerm;44276;49.534;6.378;2023-02-01T06:43:03;42.97;41.68;44.03;;
56099;Laerm;44276;49.534;6.378;2023-02-01T06:45:31;42.96;41.61;44.03;;
56099;Laerm;44276;49.534;6.378;2023-02-01T06:48:00;42.96;41.53;43.99;;
56099;Laerm;44276;49.534;6.378;2023-02-01T06:50:28;42.95;41.75;44.19;;
56099;Laerm;44276;49.534;6.378;2023-02-01T06:52:56;42.94;41.82;43.99;;
56099;Laerm;44276;49.534;6.378;2023-02-01T06:55:24;42.94;41.53;44.15;;
56099;Laerm;44276;49.534;6.378;2023-02-01T06:57:55;42.93;41.75;44.03;;
56099;Laerm;44276;49.534;6.378;2023-02-01T07:00:24;42.93;41.46;43.94;;
56099;Laerm;44276;49.534;6.378;2023-02-01T07:02:53;42.92;41.75;44.03;;
56099;Laerm;44276;49.534;6.378;2023-02-01T07:05:21;42.92;41.68;43.94;;
56099;Laerm;44276;49.534;6.378;2023-02-01T07:07:49;42.92;41.61;44.03;;
56099;Laerm;44276;49.534;6.378;2023-02-01T07:10:18;42.91;41.53;43.99;;
56099;Laerm;44276;49.534;6.378;2023-02-01T07:12:46;42.90;41.46;43.94;;
56099;Laerm;44276;49.534;6.378;2023-02-01T07:15:16;42.91;41.53;43.90;;
56099;Laerm;44276;49.534;6.378;2023-02-01T07:17:44;42.90;41.53;43.99;;
56099;Laerm;44276;49.534;6.378;2023-02-01T07:20:14;42.91;41.61;43.86;;
56099;Laerm;44276;49.534;6.378;2023-02-01T07:22:42;42.90;41.61;43.99;;
56099;Laerm;44276;49.534;6.378;2023-02-01T07:25:11;42.91;41.61;43.81;;
56099;Laerm;44276;49.534;6.378;2023-02-01T07:27:39;42.92;41.61;43.99;;
56099;Laerm;44276;49.534;6.378;2023-02-01T07:30:11;42.91;41.53;43.94;;
56099;Laerm;44276;49.534;6.378;2023-02-01T07:32:40;42.91;41.46;44.03;;
56099;Laerm;44276;49.534;6.378;2023-02-01T07:35:09;42.90;41.61;44.07;;
56099;Laerm;44276;49.534;6.378;2023-02-01T07:37:37;42.89;41.22;43.99;;
56099;Laerm;44276;49.534;6.378;2023-02-01T07:40:07;42.90;41.75;44.03;;
56099;Laerm;44276;49.534;6.378;2023-02-01T07:42:35;42.90;41.61;44.03;;
56099;Laerm;44276;49.534;6.378;2023-02-01T07:45:05;42.92;41.30;44.03;;
56099;Laerm;44276;49.534;6.378;2023-02-01T07:47:51;42.93;41.68;44.11;;
56099;Laerm;44276;49.534;6.378;2023-02-01T07:50:19;42.94;41.75;43.99;;
56099;Laerm;44276;49.534;6.378;2023-02-01T07:52:48;42.93;41.53;44.19;;
56099;Laerm;44276;49.534;6.378;2023-02-01T07:55:16;42.93;41.46;44.07;;
56099;Laerm;44276;49.534;6.378;2023-02-01T07:57:45;42.92;41.68;44.11;;
56099;Laerm;44276;49.534;6.378;2023-02-01T08:00:14;42.92;41.38;44.11;;
56099;Laerm;44276;49.534;6.378;2023-02-01T08:03:13;42.93;41.61;44.03;;
56099;Laerm;44276;49.534;6.378;2023-02-01T08:05:43;42.94;41.82;43.99;;
56099;Laerm;44276;49.534;6.378;2023-02-01T08:08:11;42.93;41.61;43.99;;
56099;Laerm;44276;49.534;6.378;2023-02-01T08:10:40;42.94;41.61;44.03;;
56099;Laerm;44276;49.534;6.378;2023-02-01T08:13:08;42.93;41.68;44.03;;
56099;Laerm;44276;49.534;6.378;2023-02-01T08:15:36;42.95;41.75;44.23;;
56099;Laerm;44276;49.534;6.378;2023-02-01T08:18:05;42.93;41.75;44.03;;
56099;Laerm;44276;49.534;6.378;2023-02-01T08:20:35;42.94;41.68;43.93;;
56099;Laerm;44276;49.534;6.378;2023-02-01T08:23:08;42.93;41.46;44.07;;
56099;Laerm;44276;49.534;6.378;2023-02-01T08:25:36;42.93;41.61;43.94;;
56099;Laerm;44276;49.534;6.378;2023-02-01T08:28:05;42.94;41.61;44.43;;
56099;Laerm;44276;49.534;6.378;2023-02-01T08:30:36;42.93;41.61;43.99;;
56099;Laerm;44276;49.534;6.378;2023-02-01T08:33:05;42.93;41.61;44.07;;
56099;Laerm;44276;49.534;6.378;2023-02-01T08:35:37;42.92;41.53;44.11;;
56099;Laerm;44276;49.534;6.378;2023-02-01T08:38:10;42.91;41.53;44.07;;
56099;Laerm;44276;49.534;6.378;2023-02-01T08:40:38;42.91;41.82;43.90;;
56099;Laerm;44276;49.534;6.378;2023-02-01T08:43:08;42.92;41.68;44.11;;
56099;Laerm;44276;49.534;6.378;2023-02-01T08:45:36;42.92;41.53;43.90;;
56099;Laerm;44276;49.534;6.378;2023-02-01T08:48:05;42.93;41.53;43.99;;
56099;Laerm;44276;49.534;6.378;2023-02-01T08:50:34;42.93;41.75;43.99;;
56099;Laerm;44276;49.534;6.378;2023-02-01T08:53:03;42.97;41.82;44.97;;
56099;Laerm;44276;49.534;6.378;2023-02-01T08:55:31;42.96;41.53;43.99;;
56099;Laerm;44276;49.534;6.378;2023-02-01T08:57:59;42.97;41.68;44.07;;
56099;Laerm;44276;49.534;6.378;2023-02-01T09:00:27;42.96;41.68;44.15;;
56099;Laerm;44276;49.534;6.378;2023-02-01T09:02:55;42.97;41.61;44.27;;
56099;Laerm;44276;49.534;6.378;2023-02-01T09:05:24;42.98;41.46;44.07;;
56099;Laerm;44276;49.534;6.378;2023-02-01T09:08:02;42.99;41.38;44.03;;
56099;Laerm;44276;49.534;6.378;2023-02-01T09:10:31;43.00;41.30;44.15;;
56099;Laerm;44276;49.534;6.378;2023-02-01T09:13:01;43.02;41.68;44.07;;
56099;Laerm;44276;49.534;6.378;2023-02-01T09:15:30;43.01;41.82;44.11;;
56099;Laerm;44276;49.534;6.378;2023-02-01T09:17:59;43.00;41.68;44.11;;
56099;Laerm;44276;49.534;6.378;2023-02-01T09:20:27;42.99;41.89;44.07;;
56099;Laerm;44276;49.534;6.378;2023-02-01T09:22:57;43.01;41.75;43.94;;
56099;Laerm;44276;49.534;6.378;2023-02-01T09:25:26;42.99;41.75;44.11;;
56099;Laerm;44276;49.534;6.378;2023-02-01T09:27:55;43.01;41.75;44.07;;
56099;Laerm;44276;49.534;6.378;2023-02-01T09:30:23;43.02;41.61;43.99;;
56099;Laerm;44276;49.534;6.378;2023-02-01T09:32:51;43.04;41.75;44.12;;
56099;Laerm;44276;49.534;6.378;2023-02-01T09:35:20;43.04;41.61;44.15;;
56099;Laerm;44276;49.534;6.378;2023-02-01T09:37:48;43.05;41.89;43.99;;
56099;Laerm;44276;49.534;6.378;2023-02-01T09:40:17;43.06;41.89;44.03;;
56099;Laerm;44276;49.534;6.378;2023-02-01T09:43:21;43.08;41.89;44.27;;
56099;Laerm;44276;49.534;6.378;2023-02-01T09:45:59;43.07;41.75;44.19;;
56099;Laerm;44276;49.534;6.378;2023-02-01T09:48:37;43.09;41.82;44.23;;
56099;Laerm;44276;49.534;6.378;2023-02-01T09:51:14;43.07;41.82;44.15;;
56099;Laerm;44276;49.534;6.378;2023-02-01T09:53:48;43.09;41.68;44.16;;
56099;Laerm;44276;49.534;6.378;2023-02-01T09:56:25;43.08;41.68;44.15;;
56099;Laerm;44276;49.534;6.378;2023-02-01T09:59:05;43.08;41.38;44.15;;
56099;Laerm;44276;49.534;6.378;2023-02-01T10:01:37;43.07;41.89;44.07;;
56099;Laerm;44276;49.534;6.378;2023-02-01T10:04:09;43.07;41.75;44.19;;
56099;Laerm;44276;49.534;6.378;2023-02-01T10:06:57;43.06;41.89;44.07;;
56099;Laerm;44276;49.534;6.378;2023-02-01T10:09:57;43.05;41.82;44.07;;
56099;Laerm;44276;49.534;6.378;2023-02-01T10:13:09;43.05;41.75;44.15;;
56099;Laerm;44276;49.534;6.378;2023-02-01T10:15:58;43.06;41.75;44.11;;
56099;Laerm;44276;49.534;6.378;2023-02-01T10:18:49;43.08;41.68;44.62;;
56099;Laerm;44276;49.534;6.378;2023-02-01T10:21:41;43.06;41.81;44.15;;
56099;Laerm;44276;49.534;6.378;2023-02-01T10:24:38;43.08;41.38;44.23;;
56099;Laerm;44276;49.534;6.378;2023-02-01T10:27:17;43.07;41.82;44.19;;
56099;Laerm;44276;49.534;6.378;2023-02-01T10:29:51;43.08;41.75;44.08;;
56099;Laerm;44276;49.534;6.378;2023-02-01T10:32:29;43.08;41.89;44.15;;
56099;Laerm;44276;49.534;6.378;2023-02-01T10:35:00;43.09;41.68;44.07;;
56099;Laerm;44276;49.534;6.378;2023-02-01T10:37:31;43.09;41.75;44.43;;
56099;Laerm;44276;49.534;6.378;2023-02-01T10:40:09;43.09;41.96;44.11;;
56099;Laerm;44276;49.534;6.378;2023-02-01T10:42:40;43.09;41.68;44.15;;
56099;Laerm;44276;49.534;6.378;2023-02-01T10:45:15;43.10;41.89;44.11;;
56099;Laerm;44276;49.534;6.378;2023-02-01T10:47:48;43.11;41.75;44.23;;
56099;Laerm;44276;49.534;6.378;2023-02-01T10:50:29;43.11;41.75;44.31;;
56099;Laerm;44276;49.534;6.378;2023-02-01T10:53:08;43.09;41.75;44.11;;
56099;Laerm;44276;49.534;6.378;2023-02-01T10:55:41;43.11;41.96;44.15;;
56099;Laerm;44276;49.534;6.378;2023-02-01T10:58:17;43.12;41.89;44.35;;
56099;Laerm;44276;49.534;6.378;2023-02-01T11:00:51;43.12;41.89;44.15;;
56099;Laerm;44276;49.534;6.378;2023-02-01T11:03:39;43.11;41.75;44.23;;
56099;Laerm;44276;49.534;6.378;2023-02-01T11:06:16;43.09;42.03;44.15;;
56099;Laerm;44276;49.534;6.378;2023-02-01T11:08:49;43.10;41.96;44.16;;
56099;Laerm;44276;49.534;6.378;2023-02-01T11:11:19;43.09;41.82;44.19;;
56099;Laerm;44276;49.534;6.378;2023-02-01T11:13:55;43.14;41.75;44.43;;
56099;Laerm;44276;49.534;6.378;2023-02-01T11:16:33;43.10;41.75;44.11;;
56099;Laerm;44276;49.534;6.378;2023-02-01T11:19:05;43.11;41.82;44.16;;
56099;Laerm;44276;49.534;6.378;2023-02-01T11:21:34;43.13;41.61;44.23;;
56099;Laerm;44276;49.534;6.378;2023-02-01T11:24:11;43.13;41.82;44.15;;
56099;Laerm;44276;49.534;6.378;2023-02-01T11:26:46;43.12;41.75;44.23;;
56099;Laerm;44276;49.534;6.378;2023-02-01T11:29:18;43.11;41.68;44.19;;
56099;Laerm;44276;49.534;6.378;2023-02-01T11:31:50;43.13;41.96;44.62;;
56099;Laerm;44276;49.534;6.378;2023-02-01T11:34:24;43.16;41.75;45.14;;
56099;Laerm;44276;49.534;6.378;2023-02-01T11:36:58;43.08;41.75;44.19;;
56099;Laerm;44276;49.534;6.378;2023-02-01T11:39:32;43.09;41.82;44.19;;
56099;Laerm;44276;49.534;6.378;2023-02-01T11:42:05;43.10;41.75;44.23;;
56099;Laerm;44276;49.534;6.378;2023-02-01T11:44:38;43.08;41.61;44.15;;
56099;Laerm;44276;49.534;6.378;2023-02-01T11:47:20;43.10;41.75;44.62;;
56099;Laerm;44276;49.534;6.378;2023-02-01T11:49:53;43.07;41.61;44.07;;
56099;Laerm;44276;49.534;6.378;2023-02-01T11:52:40;43.06;41.68;44.11;;
56099;Laerm;44276;49.534;6.378;2023-02-01T11:55:33;43.07;41.89;44.11;;
56099;Laerm;44276;49.534;6.378;2023-02-01T11:58:22;43.05;41.96;44.07;;
56099;Laerm;44276;49.534;6.378;2023-02-01T12:01:10;43.07;41.68;44.03;;
56099;Laerm;44276;49.534;6.378;2023-02-01T12:04:16;43.07;41.82;44.11;;
56099;Laerm;44276;49.534;6.378;2023-02-01T12:06:52;43.04;41.89;44.15;;
56099;Laerm;44276;49.534;6.378;2023-02-01T12:09:43;43.06;41.68;44.94;;
56099;Laerm;44276;49.534;6.378;2023-02-01T12:12:24;43.03;41.82;44.11;;
56099;Laerm;44276;49.534;6.378;2023-02-01T12:15:24;43.02;41.68;44.07;;
56099;Laerm;44276;49.534;6.378;2023-02-01T12:18:16;43.04;41.89;44.15;;
56099;Laerm;44276;49.534;6.378;2023-02-01T12:21:20;43.04;41.75;44.11;;
56099;Laerm;44276;49.534;6.378;2023-02-01T12:24:23;43.04;41.61;44.15;;
56099;Laerm;44276;49.534;6.378;2023-02-01T12:27:15;43.03;41.53;44.15;;
56099;Laerm;44276;49.534;6.378;2023-02-01T12:33:30;43.02;41.46;44.03;;
56099;Laerm;44276;49.534;6.378;2023-02-01T12:36:14;43.02;41.75;44.11;;
56099;Laerm;44276;49.534;6.378;2023-02-01T12:39:02;43.00;41.53;44.03;;
56099;Laerm;44276;49.534;6.378;2023-02-01T12:41:51;43.00;41.53;43.99;;
56099;Laerm;44276;49.534;6.378;2023-02-01T12:44:35;43.01;41.89;44.03;;
56099;Laerm;44276;49.534;6.378;2023-02-01T12:47:14;43.00;41.82;44.07;;
56099;Laerm;44276;49.534;6.378;2023-02-01T12:49:53;43.02;41.75;44.39;;
56099;Laerm;44276;49.534;6.378;2023-02-01T12:52:38;43.03;41.75;44.11;;
56099;Laerm;44276;49.534;6.378;2023-02-01T12:55:20;43.02;41.53;44.19;;
56099;Laerm;44276;49.534;6.378;2023-02-01T12:57:54;43.02;41.61;44.11;;
56099;Laerm;44276;49.534;6.378;2023-02-01T13:00:32;43.02;41.82;44.15;;
56099;Laerm;44276;49.534;6.378;2023-02-01T13:03:15;43.03;41.82;44.03;;
56099;Laerm;44276;49.534;6.378;2023-02-01T13:05:55;43.05;41.82;44.19;;
56099;Laerm;44276;49.534;6.378;2023-02-01T13:08:38;43.06;41.96;44.15;;
56099;Laerm;44276;49.534;6.378;2023-02-01T13:11:16;43.09;41.89;44.07;;
56099;Laerm;44276;49.534;6.378;2023-02-01T13:13:55;43.12;41.61;44.07;;
56099;Laerm;44276;49.534;6.378;2023-02-01T13:16:30;43.09;41.96;44.11;;
56099;Laerm;44276;49.534;6.378;2023-02-01T13:19:10;43.09;41.82;44.15;;
56099;Laerm;44276;49.534;6.378;2023-02-01T13:21:46;43.03;41.96;44.51;;
56099;Laerm;44276;49.534;6.378;2023-02-01T13:24:36;42.98;41.89;44.35;;
56099;Laerm;44276;49.534;6.378;2023-02-01T13:27:11;42.98;41.68;44.15;;
56099;Laerm;44276;49.534;6.378;2023-02-01T13:29:50;42.95;41.68;44.07;;
56099;Laerm;44276;49.534;6.378;2023-02-01T13:32:52;42.94;41.22;44.07;;
56099;Laerm;44276;49.534;6.378;2023-02-01T13:36:09;42.94;41.46;44.07;;
56099;Laerm;44276;49.534;6.378;2023-02-01T13:39:33;43.21;41.38;48.99;;
56099;Laerm;44276;49.534;6.378;2023-02-01T13:42:17;42.93;41.75;43.99;;
56099;Laerm;44276;49.534;6.378;2023-02-01T13:44:52;42.93;41.38;44.43;;
56099;Laerm;44276;49.534;6.378;2023-02-01T13:47:27;42.90;41.61;44.39;;
56099;Laerm;44276;49.534;6.378;2023-02-01T13:50:00;42.90;41.68;44.76;;
56099;Laerm;44276;49.534;6.378;2023-02-01T13:52:38;42.86;41.68;44.80;;
56099;Laerm;44276;49.534;6.378;2023-02-01T13:55:28;42.83;41.61;43.94;;
56099;Laerm;44276;49.534;6.378;2023-02-01T13:58:17;42.87;41.61;44.62;;
56099;Laerm;44276;49.534;6.378;2023-02-01T14:00:47;42.83;41.53;43.94;;
56099;Laerm;44276;49.534;6.378;2023-02-01T14:03:20;42.81;41.38;44.58;;
56099;Laerm;44276;49.534;6.378;2023-02-01T14:06:41;42.81;41.48;44.83;;
56099;Laerm;44276;49.534;6.378;2023-02-01T14:09:31;42.99;41.46;47.86;;
56099;Laerm;44276;49.534;6.378;2023-02-01T14:12:45;42.84;41.30;46.66;;
56099;Laerm;44276;49.534;6.378;2023-02-01T14:15:23;42.77;41.53;44.03;;
56099;Laerm;44276;49.534;6.378;2023-02-01T14:17:53;42.78;41.53;44.73;;
56099;Laerm;44276;49.534;6.378;2023-02-01T14:20:44;42.71;41.22;43.99;;
56099;Laerm;44276;49.534;6.378;2023-02-01T14:23:30;42.69;41.38;43.68;;
56099;Laerm;44276;49.534;6.378;2023-02-01T14:26:11;42.72;41.14;45.20;;
56099;Laerm;44276;49.534;6.378;2023-02-01T14:28:45;42.68;41.30;44.35;;
56099;Laerm;44276;49.534;6.378;2023-02-01T14:31:54;42.66;41.38;44.03;;